createdAt,value
2016-03-24T00:00:06.075Z,0
2016-03-24T00:03:18.039Z,0
2016-03-24T00:06:29.297Z,0
2016-03-24T00:09:40.838Z,0
2016-03-24T00:12:58.688Z,0
2016-03-24T00:15:59.838Z,0
2016-03-24T00:19:11.690Z,0
2016-03-24T00:22:21.935Z,0
2016-03-24T00:25:33.630Z,0
2016-03-24T00:28:51.045Z,0
2016-03-24T00:31:57.647Z,0
2016-03-24T00:34:58.279Z,0
2016-03-24T00:38:09.803Z,0
2016-03-24T00:41:21.564Z,0
2016-03-24T00:44:33.243Z,0
2016-03-24T00:47:42.112Z,0
2016-03-24T00:50:56.682Z,0
2016-03-24T00:53:57.314Z,0
2016-03-24T00:57:09.011Z,0
2016-03-24T01:00:19.771Z,0
2016-03-24T01:03:30.233Z,0
2016-03-24T01:06:41.365Z,0
2016-03-24T01:09:56.655Z,0
2016-03-24T01:12:57.475Z,0
2016-03-24T01:16:09.171Z,0
2016-03-24T01:19:20.915Z,0
2016-03-24T01:22:29.876Z,0
2016-03-24T01:25:41.353Z,0
2016-03-24T01:28:59.112Z,0
2016-03-24T01:31:59.760Z,0
2016-03-24T01:35:11.550Z,0
2016-03-24T01:38:23.233Z,0
2016-03-24T01:41:35.100Z,0
2016-03-24T01:44:52.310Z,0
2016-03-24T01:47:58.741Z,0
2016-03-24T01:51:01.451Z,0
2016-03-24T01:54:08.398Z,0
2016-03-24T01:57:17.425Z,0
2016-03-24T02:00:26.261Z,0
2016-03-24T02:03:37.924Z,0
2016-03-24T02:06:53.605Z,0
2016-03-24T02:09:54.175Z,0
2016-03-24T02:13:05.793Z,0
2016-03-24T02:16:15.535Z,0
2016-03-24T02:19:23.687Z,0
2016-03-24T02:22:34.788Z,0
2016-03-24T02:25:51.671Z,0
2016-03-24T02:28:58.195Z,0
2016-03-24T02:31:58.250Z,0
2016-03-24T02:35:09.367Z,0
2016-03-24T02:38:20.285Z,0
2016-03-24T02:41:31.089Z,0
2016-03-24T02:44:42.160Z,0
2016-03-24T02:47:59.121Z,0
2016-03-24T02:50:59.395Z,0
2016-03-24T02:54:07.122Z,0
2016-03-24T02:57:18.539Z,0
2016-03-24T03:00:29.859Z,0
2016-03-24T03:03:41.055Z,0
2016-03-24T03:06:59.439Z,0
2016-03-24T03:09:58.633Z,0
2016-03-24T03:13:08.111Z,0
2016-03-24T03:16:19.340Z,0
2016-03-24T03:19:27.785Z,0
2016-03-24T03:22:39.357Z,0
2016-03-24T03:25:53.270Z,0
2016-03-24T03:28:59.357Z,0
2016-03-24T03:31:59.973Z,0
2016-03-24T03:35:10.779Z,0
2016-03-24T03:38:24.164Z,0
2016-03-24T03:41:29.908Z,0
2016-03-24T03:44:39.290Z,0
2016-03-24T03:47:56.595Z,0
2016-03-24T03:50:56.837Z,0
2016-03-24T03:54:07.940Z,0
2016-03-24T03:57:16.712Z,0
2016-03-24T04:00:25.833Z,0
2016-03-24T04:03:35.076Z,0
2016-03-24T04:06:52.495Z,0
2016-03-24T04:09:58.877Z,0
2016-03-24T04:12:58.949Z,0
2016-03-24T04:16:09.753Z,0
2016-03-24T04:19:17.889Z,0
2016-03-24T04:22:29.194Z,0
2016-03-24T04:25:37.702Z,1
2016-03-24T04:28:55.195Z,1
2016-03-24T04:31:55.375Z,2
2016-03-24T04:35:06.600Z,4
2016-03-24T04:38:14.563Z,6
2016-03-24T04:41:25.744Z,12
2016-03-24T04:44:36.784Z,19
2016-03-24T04:47:50.824Z,30
2016-03-24T04:50:57.081Z,47
2016-03-24T04:53:57.418Z,63
2016-03-24T04:57:08.425Z,90
2016-03-24T05:00:19.624Z,112
2016-03-24T05:03:29.289Z,147
2016-03-24T05:06:37.233Z,178
2016-03-24T05:09:54.539Z,221
2016-03-24T05:12:54.953Z,236
2016-03-24T05:16:04.618Z,279
2016-03-24T05:19:16.126Z,313
2016-03-24T05:22:26.934Z,325
2016-03-24T05:25:38.487Z,350
2016-03-24T05:28:56.168Z,430
2016-03-24T05:31:56.411Z,399
2016-03-24T05:35:04.294Z,464
2016-03-24T05:38:15.411Z,490
2016-03-24T05:41:26.984Z,528
2016-03-24T05:44:35.133Z,536
2016-03-24T05:47:51.688Z,575
2016-03-24T05:50:58.259Z,547
2016-03-24T05:53:58.501Z,566
2016-03-24T05:57:06.478Z,570
2016-03-24T06:00:15.704Z,688
2016-03-24T06:03:26.887Z,644
2016-03-24T06:06:38.302Z,697
2016-03-24T06:09:55.247Z,777
2016-03-24T06:12:55.458Z,895
2016-03-24T06:16:06.779Z,930
2016-03-24T06:19:15.755Z,1055
2016-03-24T06:22:27.157Z,1132
2016-03-24T06:25:38.524Z,1135
2016-03-24T06:28:54.517Z,1111
2016-03-24T06:31:54.838Z,1200
2016-03-24T06:35:05.673Z,1269
2016-03-24T06:38:17.089Z,1224
2016-03-24T06:41:28.442Z,1141
2016-03-24T06:44:39.888Z,1326
2016-03-24T06:47:55.428Z,1410
2016-03-24T06:50:55.810Z,1457
2016-03-24T06:54:06.678Z,1400
2016-03-24T06:57:14.358Z,1341
2016-03-24T07:00:25.182Z,1399
2016-03-24T07:03:34.908Z,1459
2016-03-24T07:06:52.073Z,1708
2016-03-24T07:09:58.456Z,1860
2016-03-24T07:12:58.822Z,1683
2016-03-24T07:16:07.597Z,1701
2016-03-24T07:19:18.557Z,1605
2016-03-24T07:22:30.038Z,1488
2016-03-24T07:25:40.765Z,1477
2016-03-24T07:28:58.476Z,1430
2016-03-24T07:31:58.998Z,1531
2016-03-24T07:35:10.507Z,1656
2016-03-24T07:38:21.627Z,1732
2016-03-24T07:41:30.666Z,1671
2016-03-24T07:44:39.612Z,1614
2016-03-24T07:47:56.666Z,1820
2016-03-24T07:50:57.190Z,1946
2016-03-24T07:54:08.668Z,2302
2016-03-24T07:57:16.926Z,2324
2016-03-24T08:00:28.623Z,2432
2016-03-24T08:03:38.101Z,2300
2016-03-24T08:06:55.659Z,2165
2016-03-24T08:09:56.205Z,2293
2016-03-24T08:13:08.025Z,2556
2016-03-24T08:16:17.346Z,3115
2016-03-24T08:19:26.701Z,3567
2016-03-24T08:22:38.317Z,3578
2016-03-24T08:25:56.045Z,3385
2016-03-24T08:28:56.615Z,3534
2016-03-24T08:32:07.889Z,3908
2016-03-24T08:35:19.573Z,4088
2016-03-24T08:38:31.052Z,4267
2016-03-24T08:41:40.415Z,4109
2016-03-24T08:44:56.190Z,4613
2016-03-24T08:47:56.927Z,4038
2016-03-24T08:51:05.665Z,5064
2016-03-24T08:54:17.375Z,4552
2016-03-24T08:57:26.742Z,4360
2016-03-24T09:00:38.750Z,3538
2016-03-24T09:03:55.039Z,3880
2016-03-24T09:06:55.735Z,4405
2016-03-24T09:10:06.993Z,5082
2016-03-24T09:13:16.860Z,5915
2016-03-24T09:16:27.012Z,4956
2016-03-24T09:19:38.660Z,5558
2016-03-24T09:22:54.090Z,7015
2016-03-24T09:25:55.020Z,7384
2016-03-24T09:29:06.873Z,6809
2016-03-24T09:32:18.099Z,5529
2016-03-24T09:35:30.094Z,5603
2016-03-24T09:38:39.461Z,6070
2016-03-24T09:41:57.719Z,6036
2016-03-24T09:44:58.728Z,6915
2016-03-24T09:48:10.658Z,6198
2016-03-24T09:51:22.603Z,5488
2016-03-24T09:54:31.349Z,5760
2016-03-24T09:57:43.638Z,6540
2016-03-24T10:00:55.943Z,7080
2016-03-24T10:04:05.029Z,7119
2016-03-24T10:07:14.162Z,6471
2016-03-24T10:10:23.264Z,6511
2016-03-24T10:13:33.447Z,5644
2016-03-24T10:16:51.517Z,5048
2016-03-24T10:19:58.744Z,5015
2016-03-24T10:22:59.971Z,4485
2016-03-24T10:26:12.009Z,4833
2016-03-24T10:29:23.971Z,5511
2016-03-24T10:32:33.357Z,4431
2016-03-24T10:35:51.490Z,4927
2016-03-24T10:38:58.436Z,4217
2016-03-24T10:41:59.490Z,4522
2016-03-24T10:45:10.857Z,5163
2016-03-24T10:48:20.600Z,5426
2016-03-24T10:51:32.173Z,4450
2016-03-24T10:54:44.073Z,3875
2016-03-24T10:57:57.909Z,3992
2016-03-24T11:01:07.213Z,3689
2016-03-24T11:04:16.394Z,4008
2016-03-24T11:07:28.358Z,3637
2016-03-24T11:10:37.880Z,3874
2016-03-24T11:13:54.233Z,4288
2016-03-24T11:16:55.224Z,4388
2016-03-24T11:20:03.827Z,4834
2016-03-24T11:23:16.945Z,4816
2016-03-24T11:26:23.734Z,4291
2016-03-24T11:29:35.619Z,4225
2016-03-24T11:32:54.222Z,4444
2016-03-24T11:36:00.323Z,5281
2016-03-24T11:39:01.238Z,4539
2016-03-24T11:42:11.339Z,5365
2016-03-24T11:45:20.582Z,3713
2016-03-24T11:48:32.686Z,3573
2016-03-24T11:51:44.350Z,3429
2016-03-24T11:54:55.937Z,3487
2016-03-24T11:58:07.992Z,3417
2016-03-24T12:01:17.609Z,3048
2016-03-24T12:04:29.589Z,3139
2016-03-24T12:07:40.753Z,3329
2016-03-24T12:10:54.855Z,3607
2016-03-24T12:13:55.847Z,3142
2016-03-24T12:17:04.825Z,2924
2016-03-24T12:20:16.926Z,2987
2016-03-24T12:23:28.936Z,2675
2016-03-24T12:26:40.835Z,2458
2016-03-24T12:29:59.890Z,3424
2016-03-24T12:32:59.836Z,3664
2016-03-24T12:36:10.187Z,3566
2016-03-24T12:39:22.289Z,3662
2016-03-24T12:42:31.863Z,3596
2016-03-24T12:45:41.964Z,3903
2016-03-24T12:48:59.082Z,3758
2016-03-24T12:52:00.074Z,3871
2016-03-24T12:55:12.176Z,3579
2016-03-24T12:58:24.154Z,3557
2016-03-24T13:01:36.023Z,5658
2016-03-24T13:04:54.235Z,4469
2016-03-24T13:07:55.211Z,4812
2016-03-24T13:11:07.235Z,6066
2016-03-24T13:14:19.134Z,8656
2016-03-24T13:17:28.536Z,6752
2016-03-24T13:20:38.152Z,5982
2016-03-24T13:23:56.332Z,6095
2016-03-24T13:26:57.544Z,5903
2016-03-24T13:30:07.662Z,4040
2016-03-24T13:33:19.451Z,4240
2016-03-24T13:36:31.445Z,3927
2016-03-24T13:39:43.329Z,4785
2016-03-24T13:42:55.055Z,4337
2016-03-24T13:46:06.844Z,3798
2016-03-24T13:49:19.556Z,3664
2016-03-24T13:52:30.067Z,3577
2016-03-24T13:55:39.481Z,3355
2016-03-24T13:58:57.349Z,3329
2016-03-24T14:01:58.107Z,3307
2016-03-24T14:05:08.598Z,3196
2016-03-24T14:08:21.154Z,3258
2016-03-24T14:11:30.134Z,3167
2016-03-24T14:14:42.000Z,3083
2016-03-24T14:17:58.791Z,2956
2016-03-24T14:20:59.735Z,3042
2016-03-24T14:24:11.775Z,3073
2016-03-24T14:27:24.704Z,3524
2016-03-24T14:30:36.075Z,3898
2016-03-24T14:33:52.255Z,3411
2016-03-24T14:36:59.544Z,3266
2016-03-24T14:40:00.709Z,3180
2016-03-24T14:43:09.170Z,3245
2016-03-24T14:46:21.209Z,3912
2016-03-24T14:49:33.469Z,3792
2016-03-24T14:52:43.791Z,3703
2016-03-24T14:55:55.610Z,3769
2016-03-24T14:59:07.901Z,3454
2016-03-24T15:02:20.251Z,3157
2016-03-24T15:05:31.169Z,3271
2016-03-24T15:08:39.958Z,3290
2016-03-24T15:11:58.310Z,3122
2016-03-24T15:14:59.569Z,2951
2016-03-24T15:18:11.592Z,2815
2016-03-24T15:21:23.897Z,2774
2016-03-24T15:24:34.689Z,2795
2016-03-24T15:27:52.900Z,2743
2016-03-24T15:31:00.190Z,2748
2016-03-24T15:34:01.401Z,2555
2016-03-24T15:37:14.456Z,2228
2016-03-24T15:40:25.886Z,2372
2016-03-24T15:43:38.287Z,2557
2016-03-24T15:46:56.186Z,2408
2016-03-24T15:49:57.256Z,2467
2016-03-24T15:53:09.345Z,2197
2016-03-24T15:56:21.429Z,2039
2016-03-24T15:59:31.612Z,1998
2016-03-24T16:02:42.417Z,1998
2016-03-24T16:05:58.722Z,1996
2016-03-24T16:08:59.798Z,2005
2016-03-24T16:12:12.399Z,1977
2016-03-24T16:15:24.532Z,1913
2016-03-24T16:18:33.840Z,1772
2016-03-24T16:21:42.583Z,1628
2016-03-24T16:25:00.684Z,1577
2016-03-24T16:28:01.833Z,1678
2016-03-24T16:31:10.341Z,1518
2016-03-24T16:34:22.646Z,1414
2016-03-24T16:37:32.407Z,1212
2016-03-24T16:40:41.743Z,1049
2016-03-24T16:43:57.985Z,937
2016-03-24T16:46:59.071Z,826
2016-03-24T16:50:08.565Z,726
2016-03-24T16:53:20.478Z,644
2016-03-24T16:56:32.565Z,587
2016-03-24T16:59:44.138Z,528
2016-03-24T17:02:59.036Z,475
2016-03-24T17:05:59.935Z,417
2016-03-24T17:09:08.504Z,356
2016-03-24T17:12:19.700Z,303
2016-03-24T17:15:28.146Z,247
2016-03-24T17:18:39.985Z,199
2016-03-24T17:21:58.383Z,159
2016-03-24T17:24:59.485Z,125
2016-03-24T17:28:09.430Z,95
2016-03-24T17:31:21.517Z,70
2016-03-24T17:34:33.778Z,48
2016-03-24T17:37:52.192Z,32
2016-03-24T17:40:59.131Z,21
2016-03-24T17:43:59.962Z,14
2016-03-24T17:47:12.008Z,9
2016-03-24T17:50:23.642Z,5
2016-03-24T17:53:35.785Z,3
2016-03-24T17:56:45.509Z,2
2016-03-24T17:59:56.750Z,1
2016-03-24T18:03:07.460Z,1
2016-03-24T18:06:19.250Z,1
2016-03-24T18:09:31.180Z,1
2016-03-24T18:12:43.238Z,1
2016-03-24T18:15:58.355Z,0
2016-03-24T18:19:00.253Z,1
2016-03-24T18:22:11.229Z,1
2016-03-24T18:25:23.051Z,1
2016-03-24T18:28:32.839Z,1
2016-03-24T18:31:44.678Z,1
2016-03-24T18:35:00.483Z,1
2016-03-24T18:38:02.226Z,1
2016-03-24T18:41:12.313Z,1
2016-03-24T18:44:24.149Z,1
2016-03-24T18:47:36.050Z,1
2016-03-24T18:50:44.495Z,1
2016-03-24T18:53:55.895Z,1
2016-03-24T18:57:07.653Z,1
2016-03-24T19:00:19.395Z,1
2016-03-24T19:03:31.419Z,1
2016-03-24T19:06:43.319Z,1
2016-03-24T19:10:01.155Z,1
2016-03-24T19:13:02.116Z,1
2016-03-24T19:16:12.891Z,1
2016-03-24T19:19:22.258Z,1
2016-03-24T19:22:32.391Z,1
2016-03-24T19:25:44.156Z,1
2016-03-24T19:28:55.960Z,1
2016-03-24T19:32:07.593Z,1
2016-03-24T19:35:16.133Z,1
2016-03-24T19:38:27.392Z,1
2016-03-24T19:41:36.683Z,1
2016-03-24T19:44:52.957Z,1
2016-03-24T19:47:59.934Z,1
2016-03-24T19:51:02.770Z,1
2016-03-24T19:54:09.637Z,1
2016-03-24T19:57:21.270Z,1
2016-03-24T20:00:29.841Z,1
2016-03-24T20:03:39.103Z,1
2016-03-24T20:06:56.908Z,1
2016-03-24T20:09:57.744Z,1
2016-03-24T20:13:07.049Z,1
2016-03-24T20:16:16.901Z,1
2016-03-24T20:19:28.457Z,1
2016-03-24T20:22:40.342Z,1
2016-03-24T20:25:58.037Z,1
2016-03-24T20:28:58.842Z,1
2016-03-24T20:32:10.662Z,1
2016-03-24T20:35:19.848Z,1
2016-03-24T20:38:31.778Z,1
2016-03-24T20:41:43.727Z,1
2016-03-24T20:45:01.406Z,1
2016-03-24T20:48:02.305Z,1
2016-03-24T20:51:14.126Z,1
2016-03-24T20:54:26.055Z,1
2016-03-24T20:57:35.095Z,1
2016-03-24T21:00:52.887Z,1
2016-03-24T21:03:59.661Z,1
2016-03-24T21:07:00.465Z,1
2016-03-24T21:10:12.291Z,1
2016-03-24T21:13:24.205Z,1
2016-03-24T21:16:33.453Z,1
2016-03-24T21:19:45.151Z,1
2016-03-24T21:22:56.737Z,1
2016-03-24T21:26:08.651Z,1
2016-03-24T21:29:19.646Z,1
2016-03-24T21:32:31.324Z,1
2016-03-24T21:35:43.226Z,1
2016-03-24T21:39:01.093Z,1
2016-03-24T21:42:01.883Z,1
2016-03-24T21:45:13.407Z,1
2016-03-24T21:48:25.243Z,1
2016-03-24T21:51:37.080Z,1
2016-03-24T21:54:55.043Z,1
2016-03-24T21:57:55.973Z,0
2016-03-24T22:01:07.923Z,0
2016-03-24T22:04:19.775Z,0
2016-03-24T22:07:31.376Z,0
2016-03-24T22:10:43.715Z,0
2016-03-24T22:14:01.911Z,0
2016-03-24T22:17:03.012Z,0
2016-03-24T22:20:15.052Z,0
2016-03-24T22:23:25.232Z,0
2016-03-24T22:26:37.397Z,0
2016-03-24T22:29:45.971Z,0
2016-03-24T22:32:56.479Z,0
2016-03-24T22:36:05.987Z,0
2016-03-24T22:39:15.917Z,0
2016-03-24T22:42:27.956Z,0
2016-03-24T22:45:39.998Z,0
2016-03-24T22:48:58.319Z,0
2016-03-24T22:51:59.420Z,0
2016-03-24T22:55:11.522Z,0
2016-03-24T22:58:21.233Z,0
2016-03-24T23:01:33.163Z,0
2016-03-24T23:04:43.533Z,0
2016-03-24T23:08:01.432Z,0
2016-03-24T23:11:02.706Z,0
2016-03-24T23:14:13.401Z,0
2016-03-24T23:17:25.472Z,0
2016-03-24T23:20:35.416Z,0
2016-03-24T23:23:53.522Z,0
2016-03-24T23:27:00.639Z,0
2016-03-24T23:30:02.569Z,0
2016-03-24T23:33:12.858Z,0
2016-03-24T23:36:21.662Z,0
2016-03-24T23:39:32.045Z,0
2016-03-24T23:42:41.886Z,0
2016-03-24T23:46:00.019Z,0
2016-03-24T23:49:01.027Z,0
2016-03-24T23:52:13.284Z,0
2016-03-24T23:55:23.418Z,0
2016-03-24T23:58:35.489Z,0
